sensor_id;sensor_type;location;lat;lon;timestamp;temperature;humidity
15426;DHT22;7812;50.072;7.036;2023-11-21T00:02:21;9.80;99.90
15426;DHT22;7812;50.072;7.036;2023-11-21T00:04:50;9.90;99.90
15426;DHT22;7812;50.072;7.036;2023-11-21T00:07:16;10.10;99.90
15426;DHT22;7812;50.072;7.036;2023-11-21T00:09:42;10.00;99.90
15426;DHT22;7812;50.072;7.036;2023-11-21T00:12:08;9.90;99.90
15426;DHT22;7812;50.072;7.036;2023-11-21T00:14:37;10.00;99.90
15426;DHT22;7812;50.072;7.036;2023-11-21T00:17:04;10.10;99.90
15426;DHT22;7812;50.072;7.036;2023-11-21T00:19:31;10.00;99.90
15426;DHT22;7812;50.072;7.036;2023-11-21T00:21:57;10.20;99.90
15426;DHT22;7812;50.072;7.036;2023-11-21T00:24:24;10.20;99.90
15426;DHT22;7812;50.072;7.036;2023-11-21T00:26:50;10.10;99.90
15426;DHT22;7812;50.072;7.036;2023-11-21T00:29:19;10.20;99.90
15426;DHT22;7812;50.072;7.036;2023-11-21T00:31:45;10.30;99.90
15426;DHT22;7812;50.072;7.036;2023-11-21T00:34:13;10.30;99.90
15426;DHT22;7812;50.072;7.036;2023-11-21T00:36:40;10.30;99.90
15426;DHT22;7812;50.072;7.036;2023-11-21T00:39:06;10.10;99.90
15426;DHT22;7812;50.072;7.036;2023-11-21T00:41:32;10.00;99.90
15426;DHT22;7812;50.072;7.036;2023-11-21T00:43:58;9.80;99.90
15426;DHT22;7812;50.072;7.036;2023-11-21T00:46:25;9.70;99.90
15426;DHT22;7812;50.072;7.036;2023-11-21T00:48:52;9.60;99.90
15426;DHT22;7812;50.072;7.036;2023-11-21T00:51:19;9.50;99.90
15426;DHT22;7812;50.072;7.036;2023-11-21T00:53:45;9.60;99.90
15426;DHT22;7812;50.072;7.036;2023-11-21T00:56:12;9.70;99.90
15426;DHT22;7812;50.072;7.036;2023-11-21T00:58:39;9.90;99.90
15426;DHT22;7812;50.072;7.036;2023-11-21T01:01:09;10.00;99.90
15426;DHT22;7812;50.072;7.036;2023-11-21T01:03:35;10.00;99.90
15426;DHT22;7812;50.072;7.036;2023-11-21T01:06:01;10.10;99.90
15426;DHT22;7812;50.072;7.036;2023-11-21T01:08:27;10.20;99.90
15426;DHT22;7812;50.072;7.036;2023-11-21T01:10:53;10.20;99.90
15426;DHT22;7812;50.072;7.036;2023-11-21T01:13:19;10.10;99.90
15426;DHT22;7812;50.072;7.036;2023-11-21T01:15:45;10.00;99.90
15426;DHT22;7812;50.072;7.036;2023-11-21T01:18:11;10.00;99.90
15426;DHT22;7812;50.072;7.036;2023-11-21T01:20:37;10.10;99.90
15426;DHT22;7812;50.072;7.036;2023-11-21T01:23:03;10.10;99.90
15426;DHT22;7812;50.072;7.036;2023-11-21T01:25:29;10.20;99.90
15426;DHT22;7812;50.072;7.036;2023-11-21T01:27:55;10.20;99.90
15426;DHT22;7812;50.072;7.036;2023-11-21T01:30:21;9.90;99.90
15426;DHT22;7812;50.072;7.036;2023-11-21T01:32:47;10.00;99.90
15426;DHT22;7812;50.072;7.036;2023-11-21T01:35:13;10.10;99.90
15426;DHT22;7812;50.072;7.036;2023-11-21T01:37:39;10.20;99.90
15426;DHT22;7812;50.072;7.036;2023-11-21T01:40:05;10.20;99.90
15426;DHT22;7812;50.072;7.036;2023-11-21T01:42:35;10.20;99.90
15426;DHT22;7812;50.072;7.036;2023-11-21T01:45:01;10.10;99.90
15426;DHT22;7812;50.072;7.036;2023-11-21T01:47:31;10.20;99.90
15426;DHT22;7812;50.072;7.036;2023-11-21T01:49:58;10.10;99.90
15426;DHT22;7812;50.072;7.036;2023-11-21T01:52:24;10.10;99.90
15426;DHT22;7812;50.072;7.036;2023-11-21T01:54:50;10.00;99.90
15426;DHT22;7812;50.072;7.036;2023-11-21T01:57:18;10.00;99.90
15426;DHT22;7812;50.072;7.036;2023-11-21T01:59:47;9.90;99.90
15426;DHT22;7812;50.072;7.036;2023-11-21T02:02:14;9.90;99.90
15426;DHT22;7812;50.072;7.036;2023-11-21T02:04:41;9.90;99.90
15426;DHT22;7812;50.072;7.036;2023-11-21T02:07:07;9.90;99.90
15426;DHT22;7812;50.072;7.036;2023-11-21T02:09:33;9.80;99.90
15426;DHT22;7812;50.072;7.036;2023-11-21T02:12:00;9.80;99.90
15426;DHT22;7812;50.072;7.036;2023-11-21T02:14:26;9.80;99.90
15426;DHT22;7812;50.072;7.036;2023-11-21T02:16:54;9.70;99.90
15426;DHT22;7812;50.072;7.036;2023-11-21T02:19:21;9.70;99.90
15426;DHT22;7812;50.072;7.036;2023-11-21T02:21:57;9.70;99.90
15426;DHT22;7812;50.072;7.036;2023-11-21T02:24:32;9.70;99.90
15426;DHT22;7812;50.072;7.036;2023-11-21T02:26:58;9.60;99.90
15426;DHT22;7812;50.072;7.036;2023-11-21T02:29:24;9.60;99.90
15426;DHT22;7812;50.072;7.036;2023-11-21T02:31:56;9.70;99.90
15426;DHT22;7812;50.072;7.036;2023-11-21T02:34:22;9.60;99.90
15426;DHT22;7812;50.072;7.036;2023-11-21T02:36:48;9.60;99.90
15426;DHT22;7812;50.072;7.036;2023-11-21T02:39:18;9.70;99.90
15426;DHT22;7812;50.072;7.036;2023-11-21T02:41:47;9.60;99.90
15426;DHT22;7812;50.072;7.036;2023-11-21T02:44:13;9.60;99.90
15426;DHT22;7812;50.072;7.036;2023-11-21T02:46:39;9.70;99.90
15426;DHT22;7812;50.072;7.036;2023-11-21T02:49:06;9.70;99.90
15426;DHT22;7812;50.072;7.036;2023-11-21T02:51:33;9.80;99.90
15426;DHT22;7812;50.072;7.036;2023-11-21T02:53:59;9.80;99.90
15426;DHT22;7812;50.072;7.036;2023-11-21T02:56:28;9.70;99.90
15426;DHT22;7812;50.072;7.036;2023-11-21T02:58:57;9.60;99.90
15426;DHT22;7812;50.072;7.036;2023-11-21T03:01:23;9.50;99.90
15426;DHT22;7812;50.072;7.036;2023-11-21T03:03:49;9.50;99.90
15426;DHT22;7812;50.072;7.036;2023-11-21T03:06:18;9.50;99.90
15426;DHT22;7812;50.072;7.036;2023-11-21T03:08:44;9.50;99.90
15426;DHT22;7812;50.072;7.036;2023-11-21T03:11:10;9.50;99.90
15426;DHT22;7812;50.072;7.036;2023-11-21T03:13:36;9.60;99.90
15426;DHT22;7812;50.072;7.036;2023-11-21T03:16:02;9.60;99.90
15426;DHT22;7812;50.072;7.036;2023-11-21T03:18:27;9.60;99.90
15426;DHT22;7812;50.072;7.036;2023-11-21T03:20:54;9.50;99.90
15426;DHT22;7812;50.072;7.036;2023-11-21T03:23:20;9.50;99.90
15426;DHT22;7812;50.072;7.036;2023-11-21T03:25:46;9.50;99.90
15426;DHT22;7812;50.072;7.036;2023-11-21T03:28:12;9.50;99.90
15426;DHT22;7812;50.072;7.036;2023-11-21T03:30:38;9.50;99.90
15426;DHT22;7812;50.072;7.036;2023-11-21T03:33:04;9.50;99.90
15426;DHT22;7812;50.072;7.036;2023-11-21T03:35:30;9.40;99.90
15426;DHT22;7812;50.072;7.036;2023-11-21T03:37:56;9.40;99.90
15426;DHT22;7812;50.072;7.036;2023-11-21T03:40:22;9.30;99.90
15426;DHT22;7812;50.072;7.036;2023-11-21T03:42:47;9.30;99.90
15426;DHT22;7812;50.072;7.036;2023-11-21T03:45:13;9.40;99.90
15426;DHT22;7812;50.072;7.036;2023-11-21T03:47:41;9.40;99.90
15426;DHT22;7812;50.072;7.036;2023-11-21T03:50:08;9.40;99.90
15426;DHT22;7812;50.072;7.036;2023-11-21T03:52:37;9.40;99.90
15426;DHT22;7812;50.072;7.036;2023-11-21T03:55:03;9.30;99.90
15426;DHT22;7812;50.072;7.036;2023-11-21T03:57:29;9.40;99.90
15426;DHT22;7812;50.072;7.036;2023-11-21T03:59:55;9.40;99.90
15426;DHT22;7812;50.072;7.036;2023-11-21T04:02:21;9.40;99.90
15426;DHT22;7812;50.072;7.036;2023-11-21T04:04:47;9.40;99.90
15426;DHT22;7812;50.072;7.036;2023-11-21T04:07:12;9.30;99.90
15426;DHT22;7812;50.072;7.036;2023-11-21T04:09:39;9.30;99.90
15426;DHT22;7812;50.072;7.036;2023-11-21T04:12:07;9.30;99.90
15426;DHT22;7812;50.072;7.036;2023-11-21T04:14:35;9.40;99.90
15426;DHT22;7812;50.072;7.036;2023-11-21T04:17:01;9.40;99.90
15426;DHT22;7812;50.072;7.036;2023-11-21T04:19:26;9.40;99.90
15426;DHT22;7812;50.072;7.036;2023-11-21T04:21:52;9.40;99.90
15426;DHT22;7812;50.072;7.036;2023-11-21T04:24:18;9.40;99.90
15426;DHT22;7812;50.072;7.036;2023-11-21T04:26:44;9.50;99.90
15426;DHT22;7812;50.072;7.036;2023-11-21T04:29:10;9.50;99.90
15426;DHT22;7812;50.072;7.036;2023-11-21T04:31:36;9.60;99.90
15426;DHT22;7812;50.072;7.036;2023-11-21T04:34:02;9.50;99.90
15426;DHT22;7812;50.072;7.036;2023-11-21T04:36:30;9.50;99.90
15426;DHT22;7812;50.072;7.036;2023-11-21T04:38:58;9.60;99.90
15426;DHT22;7812;50.072;7.036;2023-11-21T04:41:24;9.70;99.90
15426;DHT22;7812;50.072;7.036;2023-11-21T04:43:50;9.80;99.90
15426;DHT22;7812;50.072;7.036;2023-11-21T04:46:16;9.80;99.90
15426;DHT22;7812;50.072;7.036;2023-11-21T04:48:42;9.80;99.90
15426;DHT22;7812;50.072;7.036;2023-11-21T04:51:07;9.70;99.90
15426;DHT22;7812;50.072;7.036;2023-11-21T04:53:33;9.80;99.90
15426;DHT22;7812;50.072;7.036;2023-11-21T04:56:00;9.60;99.90
15426;DHT22;7812;50.072;7.036;2023-11-21T04:58:26;9.50;99.90
15426;DHT22;7812;50.072;7.036;2023-11-21T05:00:52;9.60;99.90
15426;DHT22;7812;50.072;7.036;2023-11-21T05:03:18;9.70;99.90
15426;DHT22;7812;50.072;7.036;2023-11-21T05:05:44;9.70;99.90
15426;DHT22;7812;50.072;7.036;2023-11-21T05:08:09;9.70;99.90
15426;DHT22;7812;50.072;7.036;2023-11-21T05:10:35;9.70;99.90
15426;DHT22;7812;50.072;7.036;2023-11-21T05:13:03;9.60;99.90
15426;DHT22;7812;50.072;7.036;2023-11-21T05:15:29;9.50;99.90
15426;DHT22;7812;50.072;7.036;2023-11-21T05:17:55;9.40;99.90
15426;DHT22;7812;50.072;7.036;2023-11-21T05:20:20;9.40;99.90
15426;DHT22;7812;50.072;7.036;2023-11-21T05:22:47;9.30;99.90
15426;DHT22;7812;50.072;7.036;2023-11-21T05:25:14;9.40;99.90
15426;DHT22;7812;50.072;7.036;2023-11-21T05:27:40;9.50;99.90
15426;DHT22;7812;50.072;7.036;2023-11-21T05:30:06;9.40;99.90
15426;DHT22;7812;50.072;7.036;2023-11-21T05:32:35;9.30;99.90
15426;DHT22;7812;50.072;7.036;2023-11-21T05:35:01;9.30;99.90
15426;DHT22;7812;50.072;7.036;2023-11-21T05:37:27;9.30;99.90
15426;DHT22;7812;50.072;7.036;2023-11-21T05:39:55;9.40;99.90
15426;DHT22;7812;50.072;7.036;2023-11-21T05:42:25;9.40;99.90
15426;DHT22;7812;50.072;7.036;2023-11-21T05:44:51;9.60;99.90
15426;DHT22;7812;50.072;7.036;2023-11-21T05:47:17;9.30;99.90
15426;DHT22;7812;50.072;7.036;2023-11-21T05:49:43;8.90;99.90
15426;DHT22;7812;50.072;7.036;2023-11-21T05:52:10;8.90;99.90
15426;DHT22;7812;50.072;7.036;2023-11-21T05:54:36;9.30;99.90
15426;DHT22;7812;50.072;7.036;2023-11-21T05:57:03;9.40;99.90
15426;DHT22;7812;50.072;7.036;2023-11-21T05:59:29;9.50;99.90
15426;DHT22;7812;50.072;7.036;2023-11-21T06:01:55;9.70;99.90
15426;DHT22;7812;50.072;7.036;2023-11-21T06:04:21;9.90;99.90
15426;DHT22;7812;50.072;7.036;2023-11-21T06:06:50;10.00;99.90
15426;DHT22;7812;50.072;7.036;2023-11-21T06:09:16;10.10;99.90
15426;DHT22;7812;50.072;7.036;2023-11-21T06:11:42;10.10;99.90
15426;DHT22;7812;50.072;7.036;2023-11-21T06:14:08;10.10;99.90
15426;DHT22;7812;50.072;7.036;2023-11-21T06:16:35;10.10;99.90
15426;DHT22;7812;50.072;7.036;2023-11-21T06:19:01;10.10;99.90
15426;DHT22;7812;50.072;7.036;2023-11-21T06:21:27;10.10;99.90
15426;DHT22;7812;50.072;7.036;2023-11-21T06:23:52;10.10;99.90
15426;DHT22;7812;50.072;7.036;2023-11-21T06:26:18;10.00;99.90
15426;DHT22;7812;50.072;7.036;2023-11-21T06:28:46;10.00;99.90
15426;DHT22;7812;50.072;7.036;2023-11-21T06:31:12;9.70;99.90
15426;DHT22;7812;50.072;7.036;2023-11-21T06:33:37;9.70;99.90
15426;DHT22;7812;50.072;7.036;2023-11-21T06:36:03;9.60;99.90
15426;DHT22;7812;50.072;7.036;2023-11-21T06:38:29;9.60;99.90
15426;DHT22;7812;50.072;7.036;2023-11-21T06:40:56;9.50;99.90
15426;DHT22;7812;50.072;7.036;2023-11-21T06:43:23;9.40;99.90
15426;DHT22;7812;50.072;7.036;2023-11-21T06:45:50;9.30;99.90
15426;DHT22;7812;50.072;7.036;2023-11-21T06:48:15;9.20;99.90
15426;DHT22;7812;50.072;7.036;2023-11-21T06:50:41;9.00;99.90
15426;DHT22;7812;50.072;7.036;2023-11-21T06:53:07;9.10;99.90
15426;DHT22;7812;50.072;7.036;2023-11-21T06:55:34;9.20;99.90
15426;DHT22;7812;50.072;7.036;2023-11-21T06:58:00;9.30;99.90
15426;DHT22;7812;50.072;7.036;2023-11-21T07:00:26;9.30;99.90
15426;DHT22;7812;50.072;7.036;2023-11-21T07:02:55;9.40;99.90
15426;DHT22;7812;50.072;7.036;2023-11-21T07:05:21;9.40;99.90
15426;DHT22;7812;50.072;7.036;2023-11-21T07:07:48;9.50;99.90
15426;DHT22;7812;50.072;7.036;2023-11-21T07:10:15;9.40;99.90
15426;DHT22;7812;50.072;7.036;2023-11-21T07:12:41;9.50;99.90
15426;DHT22;7812;50.072;7.036;2023-11-21T07:15:07;9.50;99.90
15426;DHT22;7812;50.072;7.036;2023-11-21T07:17:35;9.40;99.90
15426;DHT22;7812;50.072;7.036;2023-11-21T07:20:04;9.30;99.90
15426;DHT22;7812;50.072;7.036;2023-11-21T07:22:32;9.20;99.90
15426;DHT22;7812;50.072;7.036;2023-11-21T07:24:58;9.10;99.90
15426;DHT22;7812;50.072;7.036;2023-11-21T07:27:23;9.20;99.90
15426;DHT22;7812;50.072;7.036;2023-11-21T07:29:49;9.10;99.90
15426;DHT22;7812;50.072;7.036;2023-11-21T07:32:15;9.10;99.90
15426;DHT22;7812;50.072;7.036;2023-11-21T07:34:41;9.00;99.90
15426;DHT22;7812;50.072;7.036;2023-11-21T07:37:07;9.10;99.90
15426;DHT22;7812;50.072;7.036;2023-11-21T07:39:35;9.20;99.90
15426;DHT22;7812;50.072;7.036;2023-11-21T07:42:02;9.10;99.90
15426;DHT22;7812;50.072;7.036;2023-11-21T07:44:28;9.00;99.90
15426;DHT22;7812;50.072;7.036;2023-11-21T07:46:54;9.10;99.90
15426;DHT22;7812;50.072;7.036;2023-11-21T07:49:23;8.70;99.90
15426;DHT22;7812;50.072;7.036;2023-11-21T07:51:49;8.30;99.90
15426;DHT22;7812;50.072;7.036;2023-11-21T07:54:16;8.50;99.90
15426;DHT22;7812;50.072;7.036;2023-11-21T07:56:41;8.90;99.90
15426;DHT22;7812;50.072;7.036;2023-11-21T07:59:08;9.10;99.90
15426;DHT22;7812;50.072;7.036;2023-11-21T08:01:33;9.30;99.90
15426;DHT22;7812;50.072;7.036;2023-11-21T08:03:59;9.50;99.90
15426;DHT22;7812;50.072;7.036;2023-11-21T08:06:32;9.50;99.90
15426;DHT22;7812;50.072;7.036;2023-11-21T08:08:58;9.20;99.90
15426;DHT22;7812;50.072;7.036;2023-11-21T08:11:24;9.40;99.90
15426;DHT22;7812;50.072;7.036;2023-11-21T08:13:52;9.40;99.90
15426;DHT22;7812;50.072;7.036;2023-11-21T08:16:18;9.50;99.90
15426;DHT22;7812;50.072;7.036;2023-11-21T08:18:44;9.50;99.90
15426;DHT22;7812;50.072;7.036;2023-11-21T08:21:12;9.60;99.90
15426;DHT22;7812;50.072;7.036;2023-11-21T08:23:38;9.80;99.90
15426;DHT22;7812;50.072;7.036;2023-11-21T08:26:05;10.10;99.90
15426;DHT22;7812;50.072;7.036;2023-11-21T08:28:31;10.20;99.90
15426;DHT22;7812;50.072;7.036;2023-11-21T08:30:57;10.20;99.90
15426;DHT22;7812;50.072;7.036;2023-11-21T08:33:23;10.20;99.90
15426;DHT22;7812;50.072;7.036;2023-11-21T08:35:49;10.20;99.90
15426;DHT22;7812;50.072;7.036;2023-11-21T08:38:15;10.20;99.90
15426;DHT22;7812;50.072;7.036;2023-11-21T08:40:41;10.10;99.90
15426;DHT22;7812;50.072;7.036;2023-11-21T08:43:06;10.10;99.90
15426;DHT22;7812;50.072;7.036;2023-11-21T08:45:33;10.30;99.90
15426;DHT22;7812;50.072;7.036;2023-11-21T08:48:00;10.30;99.90
15426;DHT22;7812;50.072;7.036;2023-11-21T08:50:27;10.00;99.90
15426;DHT22;7812;50.072;7.036;2023-11-21T08:52:53;10.10;99.90
15426;DHT22;7812;50.072;7.036;2023-11-21T08:55:19;10.30;99.90
15426;DHT22;7812;50.072;7.036;2023-11-21T08:57:45;10.40;99.90
15426;DHT22;7812;50.072;7.036;2023-11-21T09:00:14;10.50;99.90
15426;DHT22;7812;50.072;7.036;2023-11-21T09:02:43;10.60;99.90
15426;DHT22;7812;50.072;7.036;2023-11-21T09:05:12;10.40;99.90
15426;DHT22;7812;50.072;7.036;2023-11-21T09:07:40;10.30;99.90
15426;DHT22;7812;50.072;7.036;2023-11-21T09:10:07;10.10;99.90
15426;DHT22;7812;50.072;7.036;2023-11-21T09:12:35;10.00;99.90
15426;DHT22;7812;50.072;7.036;2023-11-21T09:15:03;10.00;99.90
15426;DHT22;7812;50.072;7.036;2023-11-21T09:17:30;10.10;99.90
15426;DHT22;7812;50.072;7.036;2023-11-21T09:19:55;10.10;99.90
15426;DHT22;7812;50.072;7.036;2023-11-21T09:22:22;10.20;99.90
15426;DHT22;7812;50.072;7.036;2023-11-21T09:24:50;10.20;99.90
15426;DHT22;7812;50.072;7.036;2023-11-21T09:27:16;10.20;99.90
15426;DHT22;7812;50.072;7.036;2023-11-21T09:29:43;10.20;99.90
15426;DHT22;7812;50.072;7.036;2023-11-21T09:32:11;10.20;99.90
15426;DHT22;7812;50.072;7.036;2023-11-21T09:34:40;10.20;99.90
15426;DHT22;7812;50.072;7.036;2023-11-21T09:37:07;10.40;99.90
15426;DHT22;7812;50.072;7.036;2023-11-21T09:39:33;10.40;99.90
15426;DHT22;7812;50.072;7.036;2023-11-21T09:42:23;10.50;99.90
15426;DHT22;7812;50.072;7.036;2023-11-21T09:44:58;10.60;99.90
15426;DHT22;7812;50.072;7.036;2023-11-21T09:47:27;10.60;99.90
15426;DHT22;7812;50.072;7.036;2023-11-21T09:49:54;10.70;99.90
15426;DHT22;7812;50.072;7.036;2023-11-21T09:52:26;10.60;99.90
15426;DHT22;7812;50.072;7.036;2023-11-21T09:54:55;10.60;99.90
15426;DHT22;7812;50.072;7.036;2023-11-21T09:57:24;10.60;99.90
15426;DHT22;7812;50.072;7.036;2023-11-21T09:59:54;10.60;99.90
15426;DHT22;7812;50.072;7.036;2023-11-21T10:02:27;10.40;99.90
15426;DHT22;7812;50.072;7.036;2023-11-21T10:04:55;10.30;99.90
15426;DHT22;7812;50.072;7.036;2023-11-21T10:07:22;10.40;99.90
15426;DHT22;7812;50.072;7.036;2023-11-21T10:09:48;10.30;99.90
15426;DHT22;7812;50.072;7.036;2023-11-21T10:12:16;10.20;99.90
15426;DHT22;7812;50.072;7.036;2023-11-21T10:14:42;10.40;99.90
15426;DHT22;7812;50.072;7.036;2023-11-21T10:17:10;10.60;99.90
15426;DHT22;7812;50.072;7.036;2023-11-21T10:19:39;10.40;99.90
15426;DHT22;7812;50.072;7.036;2023-11-21T10:22:05;10.80;99.90
15426;DHT22;7812;50.072;7.036;2023-11-21T10:24:33;12.10;99.90
15426;DHT22;7812;50.072;7.036;2023-11-21T10:26:59;13.30;99.90
15426;DHT22;7812;50.072;7.036;2023-11-21T10:29:29;13.90;99.90
15426;DHT22;7812;50.072;7.036;2023-11-21T10:31:55;14.40;99.90
15426;DHT22;7812;50.072;7.036;2023-11-21T10:34:24;14.30;99.90
15426;DHT22;7812;50.072;7.036;2023-11-21T10:36:50;14.30;99.90
15426;DHT22;7812;50.072;7.036;2023-11-21T10:39:19;13.80;99.90
15426;DHT22;7812;50.072;7.036;2023-11-21T10:41:46;13.90;99.90
15426;DHT22;7812;50.072;7.036;2023-11-21T10:44:17;13.90;99.90
15426;DHT22;7812;50.072;7.036;2023-11-21T10:46:54;14.10;99.90
15426;DHT22;7812;50.072;7.036;2023-11-21T10:49:24;14.90;99.90
15426;DHT22;7812;50.072;7.036;2023-11-21T10:51:50;15.40;99.90
15426;DHT22;7812;50.072;7.036;2023-11-21T10:54:23;15.70;99.90
15426;DHT22;7812;50.072;7.036;2023-11-21T10:56:50;14.90;99.90
15426;DHT22;7812;50.072;7.036;2023-11-21T10:59:17;13.90;99.90
15426;DHT22;7812;50.072;7.036;2023-11-21T11:01:45;12.50;99.90
15426;DHT22;7812;50.072;7.036;2023-11-21T11:04:12;12.20;99.90
15426;DHT22;7812;50.072;7.036;2023-11-21T11:06:48;12.30;99.90
15426;DHT22;7812;50.072;7.036;2023-11-21T11:09:17;12.70;99.90
15426;DHT22;7812;50.072;7.036;2023-11-21T11:11:43;13.10;99.90
15426;DHT22;7812;50.072;7.036;2023-11-21T11:14:14;13.50;99.90
15426;DHT22;7812;50.072;7.036;2023-11-21T11:16:40;13.80;99.90
15426;DHT22;7812;50.072;7.036;2023-11-21T11:19:07;13.60;99.90
15426;DHT22;7812;50.072;7.036;2023-11-21T11:38:46;14.90;99.90
15426;DHT22;7812;50.072;7.036;2023-11-21T11:41:12;15.20;99.90
15426;DHT22;7812;50.072;7.036;2023-11-21T11:43:38;15.00;99.90
15426;DHT22;7812;50.072;7.036;2023-11-21T11:46:11;14.70;99.90
15426;DHT22;7812;50.072;7.036;2023-11-21T11:48:40;14.20;99.90
15426;DHT22;7812;50.072;7.036;2023-11-21T11:51:14;13.50;99.90
15426;DHT22;7812;50.072;7.036;2023-11-21T11:53:46;12.90;99.90
15426;DHT22;7812;50.072;7.036;2023-11-21T11:58:50;12.20;99.90
15426;DHT22;7812;50.072;7.036;2023-11-21T12:01:24;11.90;99.90
15426;DHT22;7812;50.072;7.036;2023-11-21T12:06:43;11.70;99.90
15426;DHT22;7812;50.072;7.036;2023-11-21T12:09:19;11.60;99.90
15426;DHT22;7812;50.072;7.036;2023-11-21T12:11:47;11.40;99.90
15426;DHT22;7812;50.072;7.036;2023-11-21T12:14:14;11.30;99.90
15426;DHT22;7812;50.072;7.036;2023-11-21T12:16:41;11.30;99.90
15426;DHT22;7812;50.072;7.036;2023-11-21T12:19:11;11.30;99.90
15426;DHT22;7812;50.072;7.036;2023-11-21T12:21:37;11.30;99.90
15426;DHT22;7812;50.072;7.036;2023-11-21T12:24:03;11.40;99.90
15426;DHT22;7812;50.072;7.036;2023-11-21T12:26:29;11.40;99.90
15426;DHT22;7812;50.072;7.036;2023-11-21T12:28:55;11.40;99.90
15426;DHT22;7812;50.072;7.036;2023-11-21T12:31:24;11.50;99.90
15426;DHT22;7812;50.072;7.036;2023-11-21T12:33:50;11.60;99.90
15426;DHT22;7812;50.072;7.036;2023-11-21T12:36:16;11.70;99.90
15426;DHT22;7812;50.072;7.036;2023-11-21T12:38:42;11.70;99.90
15426;DHT22;7812;50.072;7.036;2023-11-21T12:41:09;11.70;99.90
15426;DHT22;7812;50.072;7.036;2023-11-21T12:43:36;11.70;99.90
15426;DHT22;7812;50.072;7.036;2023-11-21T12:46:09;11.70;99.90
15426;DHT22;7812;50.072;7.036;2023-11-21T12:48:38;11.70;99.90
15426;DHT22;7812;50.072;7.036;2023-11-21T12:51:06;11.80;99.90
15426;DHT22;7812;50.072;7.036;2023-11-21T12:53:32;11.80;99.90
15426;DHT22;7812;50.072;7.036;2023-11-21T12:56:10;11.80;99.90
15426;DHT22;7812;50.072;7.036;2023-11-21T12:58:37;11.90;99.90
15426;DHT22;7812;50.072;7.036;2023-11-21T13:01:05;11.90;99.90
15426;DHT22;7812;50.072;7.036;2023-11-21T13:03:37;11.90;99.90
15426;DHT22;7812;50.072;7.036;2023-11-21T13:06:04;11.90;99.90
15426;DHT22;7812;50.072;7.036;2023-11-21T13:08:30;11.90;99.90
15426;DHT22;7812;50.072;7.036;2023-11-21T13:10:58;12.00;99.90
15426;DHT22;7812;50.072;7.036;2023-11-21T13:13:26;12.10;99.90
15426;DHT22;7812;50.072;7.036;2023-11-21T13:16:02;12.30;99.90
15426;DHT22;7812;50.072;7.036;2023-11-21T13:18:31;12.40;99.90
15426;DHT22;7812;50.072;7.036;2023-11-21T13:20:59;12.60;99.90
15426;DHT22;7812;50.072;7.036;2023-11-21T13:23:25;12.40;99.90
15426;DHT22;7812;50.072;7.036;2023-11-21T13:25:54;12.40;99.90
15426;DHT22;7812;50.072;7.036;2023-11-21T13:28:20;12.40;99.90
15426;DHT22;7812;50.072;7.036;2023-11-21T13:30:48;12.20;99.90
15426;DHT22;7812;50.072;7.036;2023-11-21T13:33:14;12.10;99.90
15426;DHT22;7812;50.072;7.036;2023-11-21T13:35:43;12.00;99.90
15426;DHT22;7812;50.072;7.036;2023-11-21T13:38:15;11.90;99.90
15426;DHT22;7812;50.072;7.036;2023-11-21T13:40:49;12.00;99.90
15426;DHT22;7812;50.072;7.036;2023-11-21T13:43:22;12.10;99.90
15426;DHT22;7812;50.072;7.036;2023-11-21T13:45:51;12.30;99.90
15426;DHT22;7812;50.072;7.036;2023-11-21T13:48:24;12.40;99.90
15426;DHT22;7812;50.072;7.036;2023-11-21T13:51:14;12.60;99.90
15426;DHT22;7812;50.072;7.036;2023-11-21T13:53:47;12.60;99.90
15426;DHT22;7812;50.072;7.036;2023-11-21T13:56:16;12.80;99.90
15426;DHT22;7812;50.072;7.036;2023-11-21T13:58:52;12.80;99.90
15426;DHT22;7812;50.072;7.036;2023-11-21T14:01:21;12.80;99.90
15426;DHT22;7812;50.072;7.036;2023-11-21T14:04:10;12.70;99.90
15426;DHT22;7812;50.072;7.036;2023-11-21T14:06:43;12.50;99.90
15426;DHT22;7812;50.072;7.036;2023-11-21T14:09:17;12.30;99.90
15426;DHT22;7812;50.072;7.036;2023-11-21T14:11:52;12.10;99.90
15426;DHT22;7812;50.072;7.036;2023-11-21T14:14:19;11.90;99.90
15426;DHT22;7812;50.072;7.036;2023-11-21T14:16:45;11.90;99.90
15426;DHT22;7812;50.072;7.036;2023-11-21T14:19:11;11.80;99.90
15426;DHT22;7812;50.072;7.036;2023-11-21T14:21:46;11.60;99.90
15426;DHT22;7812;50.072;7.036;2023-11-21T14:24:14;11.60;99.90
15426;DHT22;7812;50.072;7.036;2023-11-21T14:26:44;11.40;99.90
15426;DHT22;7812;50.072;7.036;2023-11-21T14:29:12;11.30;99.90
15426;DHT22;7812;50.072;7.036;2023-11-21T14:31:43;11.20;99.90
15426;DHT22;7812;50.072;7.036;2023-11-21T14:34:09;11.20;99.90
15426;DHT22;7812;50.072;7.036;2023-11-21T14:36:36;11.20;99.90
15426;DHT22;7812;50.072;7.036;2023-11-21T14:39:09;11.10;99.90
15426;DHT22;7812;50.072;7.036;2023-11-21T14:41:46;10.90;99.90
15426;DHT22;7812;50.072;7.036;2023-11-21T14:44:11;10.80;99.90
15426;DHT22;7812;50.072;7.036;2023-11-21T14:46:39;10.70;99.90
15426;DHT22;7812;50.072;7.036;2023-11-21T14:49:06;10.60;99.90
15426;DHT22;7812;50.072;7.036;2023-11-21T14:51:53;10.50;99.90
15426;DHT22;7812;50.072;7.036;2023-11-21T14:54:29;10.60;99.90
15426;DHT22;7812;50.072;7.036;2023-11-21T14:57:15;10.60;99.90
15426;DHT22;7812;50.072;7.036;2023-11-21T14:59:45;10.50;99.90
15426;DHT22;7812;50.072;7.036;2023-11-21T15:02:23;10.50;99.90
15426;DHT22;7812;50.072;7.036;2023-11-21T15:05:09;10.50;99.90
15426;DHT22;7812;50.072;7.036;2023-11-21T15:07:40;10.60;99.90
15426;DHT22;7812;50.072;7.036;2023-11-21T15:10:07;10.60;99.90
15426;DHT22;7812;50.072;7.036;2023-11-21T15:12:38;10.60;99.90
15426;DHT22;7812;50.072;7.036;2023-11-21T15:15:05;10.70;99.90
15426;DHT22;7812;50.072;7.036;2023-11-21T15:17:35;10.80;99.90
15426;DHT22;7812;50.072;7.036;2023-11-21T15:20:03;10.90;99.90
15426;DHT22;7812;50.072;7.036;2023-11-21T15:22:32;10.80;99.90
15426;DHT22;7812;50.072;7.036;2023-11-21T15:24:58;10.70;99.90
15426;DHT22;7812;50.072;7.036;2023-11-21T15:27:25;10.50;99.90
15426;DHT22;7812;50.072;7.036;2023-11-21T15:29:52;10.60;99.90
15426;DHT22;7812;50.072;7.036;2023-11-21T15:32:19;10.60;99.90
15426;DHT22;7812;50.072;7.036;2023-11-21T15:34:44;10.60;99.90
15426;DHT22;7812;50.072;7.036;2023-11-21T15:37:12;10.50;99.90
15426;DHT22;7812;50.072;7.036;2023-11-21T15:39:38;10.50;99.90
15426;DHT22;7812;50.072;7.036;2023-11-21T15:42:05;10.60;99.90
15426;DHT22;7812;50.072;7.036;2023-11-21T15:44:32;10.50;99.90
15426;DHT22;7812;50.072;7.036;2023-11-21T15:46:59;10.50;99.90
15426;DHT22;7812;50.072;7.036;2023-11-21T15:49:24;10.50;99.90
15426;DHT22;7812;50.072;7.036;2023-11-21T15:51:52;10.50;99.90
15426;DHT22;7812;50.072;7.036;2023-11-21T15:54:24;10.50;99.90
15426;DHT22;7812;50.072;7.036;2023-11-21T15:56:52;10.50;99.90
15426;DHT22;7812;50.072;7.036;2023-11-21T15:59:18;10.40;99.90
15426;DHT22;7812;50.072;7.036;2023-11-21T16:01:44;10.20;99.90
15426;DHT22;7812;50.072;7.036;2023-11-21T16:04:13;10.10;99.90
15426;DHT22;7812;50.072;7.036;2023-11-21T16:06:46;10.20;99.90
15426;DHT22;7812;50.072;7.036;2023-11-21T16:09:12;10.20;99.90
15426;DHT22;7812;50.072;7.036;2023-11-21T16:11:51;10.20;99.90
15426;DHT22;7812;50.072;7.036;2023-11-21T16:14:19;10.10;99.90
15426;DHT22;7812;50.072;7.036;2023-11-21T16:16:46;10.20;99.90
15426;DHT22;7812;50.072;7.036;2023-11-21T16:19:11;10.10;99.90